Jewel Of The Seas — C6FW9 — position and weather

sailwx.info

Track history (hours):
 
Tides and Currents Weather Stations Pressure Air Temp Water Temp Dewpoint Dewpoint Depression Visibility Wind Speed Wind Dir Waves Ship Positions

Jewel Of The Seas

Operator: Royal Caribbean Cruises Ltd

Last reported at 2017-Apr-23 15:22 UTC. Time now 2017-Apr-23 15:44 UTC.
Position N 18°28' W 066°06'.

Length 290 m; draft 8.6 m.

Type: Passenger vessel. MMSI: 311583000.

Date/timePositionNaut miles runAvg speedWind from/ knotsBaromVisibWave heightAir tempDewpointWater temp
2017-Apr-23 15:22N 18°28' W 066°06'0 0.0
2017-Apr-23 14:58N 18°28' W 066°06'0 0.0
2017-Apr-23 13:58N 18°28' W 066°06'0 0.0
2017-Apr-23 13:28N 18°28' W 066°06'0 0.0
2017-Apr-23 12:58N 18°28' W 066°06'0 0.0
2017-Apr-23 12:25N 18°28' W 066°06'0 0.0
2017-Apr-23 11:52N 18°28' W 066°06'0 0.0
2017-Apr-23 11:28N 18°28' W 066°06'0 0.0
2017-Apr-23 10:55N 18°28' W 066°06'0 0.0
2017-Apr-23 10:28N 18°28' W 066°06'0 0.0
2017-Apr-23 09:58N 18°28' W 066°06'0 1.0
2017-Apr-23 09:30N 18°28' W 066°06'2 3.9
2017-Apr-23 09:00N 18°29' W 066°08'5 9.5
2017-Apr-23 08:30N 18°32' W 066°03'4412.4
2017-Apr-23 05:00N 18°24' W 065°18'2135.3 120 / 131012.027.0 26.0 27.0
2017-Apr-23 04:25N 18°14' W 064°59'615.9
2017-Apr-23 04:00N 18°11' W 064°53'7450.5
2017-Apr-23 04:00N 18°06' W 064°48'5 9.6 080 / 151013.0 25.0 27.0
2017-Apr-23 03:30N 18°10' W 064°45'7216.2
2017-Apr-22 23:05N 18°02' W 063°30'216.3
2017-Apr-22 22:57N 18°02' W 063°27'916.3
2017-Apr-22 22:25N 18°01' W 063°18'816.2
2017-Apr-22 21:56N 18°01' W 063°10'6 0.6
2017-Apr-22 11:24N 18°00' W 063°03'3 7.5
2017-Apr-22 11:00N 17°59' W 063°06'5 9.7
2017-Apr-22 10:28N 17°54' W 063°06'5 9.6
2017-Apr-22 09:57N 17°49' W 063°04'510.0
2017-Apr-22 09:30N 17°45' W 063°03'5 9.3
2017-Apr-22 09:00N 17°42' W 062°59'20 9.9
2017-Apr-22 06:58N 17°41' W 062°38'510.0
2017-Apr-22 06:29N 17°42' W 062°33'5 9.9
2017-Apr-22 06:00N 17°45' W 062°28'5 9.9
2017-Apr-22 05:28N 17°47' W 062°24'510.0
2017-Apr-22 05:00N 17°50' W 062°20'9594.8
2017-Apr-22 05:00N 17°42' W 062°24'1327.2 050 / 91012.027.0 25.0 27.0
2017-Apr-22 04:30N 17°52' W 062°15'4 7.7
2017-Apr-22 04:00N 17°48' W 062°14'5 9.7
2017-Apr-22 03:30N 17°44' W 062°17'5 9.7
2017-Apr-22 03:01N 17°40' W 062°20'5 9.9
2017-Apr-22 02:30N 17°36' W 062°23'5 9.7
2017-Apr-22 02:01N 17°32' W 062°26'14 9.6
2017-Apr-22 00:34N 17°23' W 062°15'110.2
2017-Apr-22 00:30N 17°22' W 062°15'510.2
2017-Apr-22 00:00N 17°19' W 062°11'510.3
2017-Apr-21 23:30N 17°16' W 062°06'510.5
2017-Apr-21 23:00N 17°13' W 062°02'610.2
2017-Apr-21 22:26N 17°10' W 061°57'410.2
2017-Apr-21 22:00N 17°08' W 061°53'2 3.6
2017-Apr-21 21:29N 17°07' W 061°51'0 0.0
2017-Apr-21 20:59N 17°07' W 061°51'0 0.0
2017-Apr-21 20:29N 17°07' W 061°51'0 0.0
2017-Apr-21 19:59N 17°07' W 061°51'0 0.0
2017-Apr-21 19:29N 17°07' W 061°51'0 0.0
2017-Apr-21 18:59N 17°07' W 061°51'0 0.0
2017-Apr-21 18:29N 17°07' W 061°51'0 0.0
2017-Apr-21 17:59N 17°07' W 061°51'0 0.0
2017-Apr-21 17:29N 17°07' W 061°51'0 0.0
2017-Apr-21 16:59N 17°07' W 061°51'0 0.0
2017-Apr-21 16:29N 17°07' W 061°51'0 0.0
2017-Apr-21 15:59N 17°07' W 061°51'1 3.1
2017-Apr-21 15:30N 17°08' W 061°52'611.1
2017-Apr-21 15:00N 17°10' W 061°58'815.4
2017-Apr-21 14:30N 17°13' W 062°05'1615.5
2017-Apr-21 13:30N 17°19' W 062°20'815.4
2017-Apr-21 13:00N 17°22' W 062°27'815.3
2017-Apr-21 12:30N 17°26' W 062°35'2915.4
2017-Apr-21 10:36N 17°38' W 063°03'215.5
2017-Apr-21 10:30N 17°38' W 063°04'915.5
2017-Apr-21 09:57N 17°42' W 063°12'815.3
2017-Apr-21 09:26N 17°45' W 063°20'915.5
2017-Apr-21 08:50N 17°49' W 063°29'515.5
2017-Apr-21 08:29N 17°51' W 063°34'3710.7
2017-Apr-21 05:00N 18°00' W 064°12'3827.7 090 / 191010.027.0 25.0 27.0
2017-Apr-21 03:37N 18°12' W 064°50'216.9
2017-Apr-21 03:30N 18°13' W 064°52'45 2.0
2017-Apr-20 05:00N 18°30' W 065°36'24 1.0 090 / 131013.027.0 25.0 27.0
2017-Apr-19 05:00N 18°24' W 065°12'1722.2 050 / 241015.027.0 26.0 27.0
2017-Apr-19 04:13N 18°13' W 064°58'415.8
2017-Apr-19 03:58N 18°11' W 064°55'715.8
2017-Apr-19 03:30N 18°09' W 064°47'7716.2
2017-Apr-18 22:45N 18°02' W 063°27'415.8
2017-Apr-18 22:30N 18°01' W 063°23'815.9
2017-Apr-18 21:58N 18°00' W 063°14'816.2
2017-Apr-18 21:28N 18°00' W 063°05'3 0.3
2017-Apr-18 12:18N 18°01' W 063°03'0 0.1
2017-Apr-18 10:44N 18°01' W 063°03'0 1.0
2017-Apr-18 10:25N 18°00' W 063°03'7 9.2
2017-Apr-18 09:39N 18°00' W 063°10'210.4
2017-Apr-18 09:28N 18°00' W 063°12'510.1
2017-Apr-18 09:00N 18°01' W 063°17'610.4
2017-Apr-18 08:24N 18°01' W 063°24'410.3
2017-Apr-18 07:59N 18°01' W 063°29'6 9.7
2017-Apr-18 07:23N 18°01' W 063°35'4 8.7
2017-Apr-18 06:57N 17°59' W 063°38'4 9.6
2017-Apr-18 06:30N 17°55' W 063°39'11 7.4
2017-Apr-18 05:00N 17°48' W 063°30'310.1 090 / 241013.027.0 25.0 27.0
2017-Apr-18 04:42N 17°48' W 063°27'910.0
2017-Apr-18 03:50N 17°45' W 063°19'610.2
2017-Apr-18 03:17N 17°42' W 063°13'310.2
2017-Apr-18 02:59N 17°41' W 063°10'510.1
2017-Apr-18 02:30N 17°36' W 063°08'35 7.7
2017-Apr-17 22:00N 17°12' W 062°42'34 3.2 080 / 181012.0 26.0 27.0
2017-Apr-17 11:28N 17°36' W 063°08'817.7
2017-Apr-17 11:00N 17°42' W 063°13'918.0
2017-Apr-17 10:30N 17°46' W 063°22'1217.9
2017-Apr-17 09:50N 17°49' W 063°34'6818.1
2017-Apr-17 06:04N 18°07' W 064°43'317.8
2017-Apr-17 05:53N 18°08' W 064°47'717.8
2017-Apr-17 05:30N 18°10' W 064°53'1222.9
2017-Apr-17 05:00N 18°06' W 064°42'7823.2 080 / 241010.027.0 26.0 27.0
2017-Apr-17 01:37N 18°31' W 066°00'217.2
2017-Apr-17 01:30N 18°31' W 066°02'611.3
2017-Apr-17 00:58N 18°28' W 066°07'1 2.5
2017-Apr-17 00:24N 18°28' W 066°06'0 0.0
2017-Apr-16 23:51N 18°28' W 066°06'0 0.0
2017-Apr-16 23:30N 18°28' W 066°06'0 0.0
2017-Apr-16 23:00N 18°28' W 066°06'0 0.0
2017-Apr-16 22:24N 18°28' W 066°06'0 0.0
2017-Apr-16 21:55N 18°28' W 066°06'0 0.0
2017-Apr-16 21:30N 18°28' W 066°06'0 0.0
2017-Apr-16 21:00N 18°28' W 066°06'0 0.0
2017-Apr-16 20:30N 18°28' W 066°06'0 0.0
2017-Apr-16 19:48N 18°28' W 066°06'0 0.0
2017-Apr-16 19:09N 18°28' W 066°06'0 0.0
2017-Apr-16 19:00N 18°28' W 066°06'0 0.0
2017-Apr-16 18:27N 18°28' W 066°06'0 0.0
2017-Apr-16 18:00N 18°28' W 066°06'0 0.0
2017-Apr-16 17:27N 18°28' W 066°06'0 0.0
2017-Apr-16 17:00N 18°28' W 066°06'0 0.0
2017-Apr-16 16:09N 18°28' W 066°06'0 0.0
2017-Apr-16 15:52N 18°28' W 066°06'0 0.0
2017-Apr-16 15:30N 18°28' W 066°06'0 0.0
2017-Apr-16 14:57N 18°28' W 066°06'0 0.0
2017-Apr-16 14:27N 18°28' W 066°06'0 0.0
2017-Apr-16 12:45N 18°28' W 066°06'0 0.0
2017-Apr-16 12:21N 18°28' W 066°06'0 0.0
2017-Apr-16 11:54N 18°28' W 066°06'0 0.0
2017-Apr-16 11:27N 18°28' W 066°06'0 0.0
2017-Apr-16 11:00N 18°28' W 066°06'1 0.4
2017-Apr-16 09:20N 18°27' W 066°07'4 6.9
2017-Apr-16 08:48N 18°31' W 066°07'412.5
2017-Apr-16 08:30N 18°32' W 066°03'713.7
2017-Apr-16 08:00N 18°32' W 065°56'4214.1
2017-Apr-16 05:00N 18°24' W 065°12'2413.9 040 / 91013.027.0 26.0 27.0
2017-Apr-16 03:14N 18°09' W 064°52'314.5
2017-Apr-16 03:01N 18°07' W 064°49'178.6
2017-Apr-16 03:00N 18°06' W 064°48'14614.1 050 / 151014.0 27.0 27.0
2017-Apr-15 16:39N 16°23' W 063°01'1414.4
2017-Apr-15 15:39N 16°12' W 062°51'214.5
2017-Apr-15 15:30N 16°10' W 062°49'2514.1
2017-Apr-15 13:46N 15°52' W 062°32'12113.8
2017-Apr-15 05:00N 14°24' W 061°06'73 3.0 090 / 131011.027.0 28.0 27.0
2017-Apr-14 05:00N 13°24' W 060°24'   130 / 191009.027.0 27.0 27.0
Track history (hours):
 
Tides and Currents Weather Stations Pressure Air Temp Water Temp Dewpoint Dewpoint Depression Visibility Wind Speed Wind Dir Waves Ship Positions

Jewel Of The Seas

Operator: Royal Caribbean Cruises Ltd

Last reported at 2017-Apr-23 15:22 UTC. Time now 2017-Apr-23 15:44 UTC.
Position N 18°28' W 066°06'.

Length 290 m; draft 8.6 m.

Type: Passenger vessel. MMSI: 311583000.

Date/timePositionNaut miles runAvg speedWind from/ knotsBaromVisibWave heightAir tempDewpointWater temp
2017-Apr-23 15:22N 18°28' W 066°06'0 0.0
2017-Apr-23 14:58N 18°28' W 066°06'0 0.0
2017-Apr-23 13:58N 18°28' W 066°06'0 0.0
2017-Apr-23 13:28N 18°28' W 066°06'0 0.0
2017-Apr-23 12:58N 18°28' W 066°06'0 0.0
2017-Apr-23 12:25N 18°28' W 066°06'0 0.0
2017-Apr-23 11:52N 18°28' W 066°06'0 0.0
2017-Apr-23 11:28N 18°28' W 066°06'0 0.0
2017-Apr-23 10:55N 18°28' W 066°06'0 0.0
2017-Apr-23 10:28N 18°28' W 066°06'0 0.0
2017-Apr-23 09:58N 18°28' W 066°06'0 1.0
2017-Apr-23 09:30N 18°28' W 066°06'2 3.9
2017-Apr-23 09:00N 18°29' W 066°08'5 9.5
2017-Apr-23 08:30N 18°32' W 066°03'4412.4
2017-Apr-23 05:00N 18°24' W 065°18'2135.3 120 / 131012.027.0 26.0 27.0
2017-Apr-23 04:25N 18°14' W 064°59'615.9
2017-Apr-23 04:00N 18°11' W 064°53'7450.5
2017-Apr-23 04:00N 18°06' W 064°48'5 9.6 080 / 151013.0 25.0 27.0
2017-Apr-23 03:30N 18°10' W 064°45'7216.2
2017-Apr-22 23:05N 18°02' W 063°30'216.3
2017-Apr-22 22:57N 18°02' W 063°27'916.3
2017-Apr-22 22:25N 18°01' W 063°18'816.2
2017-Apr-22 21:56N 18°01' W 063°10'6 0.6
2017-Apr-22 11:24N 18°00' W 063°03'3 7.5
2017-Apr-22 11:00N 17°59' W 063°06'5 9.7
2017-Apr-22 10:28N 17°54' W 063°06'5 9.6
2017-Apr-22 09:57N 17°49' W 063°04'510.0
2017-Apr-22 09:30N 17°45' W 063°03'5 9.3
2017-Apr-22 09:00N 17°42' W 062°59'20 9.9
2017-Apr-22 06:58N 17°41' W 062°38'510.0
2017-Apr-22 06:29N 17°42' W 062°33'5 9.9
2017-Apr-22 06:00N 17°45' W 062°28'5 9.9
2017-Apr-22 05:28N 17°47' W 062°24'510.0
2017-Apr-22 05:00N 17°50' W 062°20'9594.8
2017-Apr-22 05:00N 17°42' W 062°24'1327.2 050 / 91012.027.0 25.0 27.0
2017-Apr-22 04:30N 17°52' W 062°15'4 7.7
2017-Apr-22 04:00N 17°48' W 062°14'5 9.7
2017-Apr-22 03:30N 17°44' W 062°17'5 9.7
2017-Apr-22 03:01N 17°40' W 062°20'5 9.9
2017-Apr-22 02:30N 17°36' W 062°23'5 9.7
2017-Apr-22 02:01N 17°32' W 062°26'14 9.6
2017-Apr-22 00:34N 17°23' W 062°15'110.2
2017-Apr-22 00:30N 17°22' W 062°15'510.2
2017-Apr-22 00:00N 17°19' W 062°11'510.3
2017-Apr-21 23:30N 17°16' W 062°06'510.5
2017-Apr-21 23:00N 17°13' W 062°02'610.2
2017-Apr-21 22:26N 17°10' W 061°57'410.2
2017-Apr-21 22:00N 17°08' W 061°53'2 3.6
2017-Apr-21 21:29N 17°07' W 061°51'0 0.0
2017-Apr-21 20:59N 17°07' W 061°51'0 0.0
2017-Apr-21 20:29N 17°07' W 061°51'0 0.0
2017-Apr-21 19:59N 17°07' W 061°51'0 0.0
2017-Apr-21 19:29N 17°07' W 061°51'0 0.0
2017-Apr-21 18:59N 17°07' W 061°51'0 0.0
2017-Apr-21 18:29N 17°07' W 061°51'0 0.0
2017-Apr-21 17:59N 17°07' W 061°51'0 0.0
2017-Apr-21 17:29N 17°07' W 061°51'0 0.0
2017-Apr-21 16:59N 17°07' W 061°51'0 0.0
2017-Apr-21 16:29N 17°07' W 061°51'0 0.0
2017-Apr-21 15:59N 17°07' W 061°51'1 3.1
2017-Apr-21 15:30N 17°08' W 061°52'611.1
2017-Apr-21 15:00N 17°10' W 061°58'815.4
2017-Apr-21 14:30N 17°13' W 062°05'1615.5
2017-Apr-21 13:30N 17°19' W 062°20'815.4
2017-Apr-21 13:00N 17°22' W 062°27'815.3
2017-Apr-21 12:30N 17°26' W 062°35'2915.4
2017-Apr-21 10:36N 17°38' W 063°03'215.5
2017-Apr-21 10:30N 17°38' W 063°04'915.5
2017-Apr-21 09:57N 17°42' W 063°12'815.3
2017-Apr-21 09:26N 17°45' W 063°20'915.5
2017-Apr-21 08:50N 17°49' W 063°29'515.5
2017-Apr-21 08:29N 17°51' W 063°34'3710.7
2017-Apr-21 05:00N 18°00' W 064°12'3827.7 090 / 191010.027.0 25.0 27.0
2017-Apr-21 03:37N 18°12' W 064°50'216.9
2017-Apr-21 03:30N 18°13' W 064°52'45 2.0
2017-Apr-20 05:00N 18°30' W 065°36'24 1.0 090 / 131013.027.0 25.0 27.0
2017-Apr-19 05:00N 18°24' W 065°12'1722.2 050 / 241015.027.0 26.0 27.0
2017-Apr-19 04:13N 18°13' W 064°58'415.8
2017-Apr-19 03:58N 18°11' W 064°55'715.8
2017-Apr-19 03:30N 18°09' W 064°47'7716.2
2017-Apr-18 22:45N 18°02' W 063°27'415.8
2017-Apr-18 22:30N 18°01' W 063°23'815.9
2017-Apr-18 21:58N 18°00' W 063°14'816.2
2017-Apr-18 21:28N 18°00' W 063°05'3 0.3
2017-Apr-18 12:18N 18°01' W 063°03'0 0.1
2017-Apr-18 10:44N 18°01' W 063°03'0 1.0
2017-Apr-18 10:25N 18°00' W 063°03'7 9.2
2017-Apr-18 09:39N 18°00' W 063°10'210.4
2017-Apr-18 09:28N 18°00' W 063°12'510.1
2017-Apr-18 09:00N 18°01' W 063°17'610.4
2017-Apr-18 08:24N 18°01' W 063°24'410.3
2017-Apr-18 07:59N 18°01' W 063°29'6 9.7
2017-Apr-18 07:23N 18°01' W 063°35'4 8.7
2017-Apr-18 06:57N 17°59' W 063°38'4 9.6
2017-Apr-18 06:30N 17°55' W 063°39'11 7.4
2017-Apr-18 05:00N 17°48' W 063°30'310.1 090 / 241013.027.0 25.0 27.0
2017-Apr-18 04:42N 17°48' W 063°27'910.0
2017-Apr-18 03:50N 17°45' W 063°19'610.2
2017-Apr-18 03:17N 17°42' W 063°13'310.2
2017-Apr-18 02:59N 17°41' W 063°10'510.1
2017-Apr-18 02:30N 17°36' W 063°08'35 7.7
2017-Apr-17 22:00N 17°12' W 062°42'34 3.2 080 / 181012.0 26.0 27.0
2017-Apr-17 11:28N 17°36' W 063°08'817.7
2017-Apr-17 11:00N 17°42' W 063°13'918.0
2017-Apr-17 10:30N 17°46' W 063°22'1217.9
2017-Apr-17 09:50N 17°49' W 063°34'6818.1
2017-Apr-17 06:04N 18°07' W 064°43'317.8
2017-Apr-17 05:53N 18°08' W 064°47'717.8
2017-Apr-17 05:30N 18°10' W 064°53'1222.9
2017-Apr-17 05:00N 18°06' W 064°42'7823.2 080 / 241010.027.0 26.0 27.0
2017-Apr-17 01:37N 18°31' W 066°00'217.2
2017-Apr-17 01:30N 18°31' W 066°02'611.3
2017-Apr-17 00:58N 18°28' W 066°07'1 2.5
2017-Apr-17 00:24N 18°28' W 066°06'0 0.0
2017-Apr-16 23:51N 18°28' W 066°06'0 0.0
2017-Apr-16 23:30N 18°28' W 066°06'0 0.0
2017-Apr-16 23:00N 18°28' W 066°06'0 0.0
2017-Apr-16 22:24N 18°28' W 066°06'0 0.0
2017-Apr-16 21:55N 18°28' W 066°06'0 0.0
2017-Apr-16 21:30N 18°28' W 066°06'0 0.0
2017-Apr-16 21:00N 18°28' W 066°06'0 0.0
2017-Apr-16 20:30N 18°28' W 066°06'0 0.0
2017-Apr-16 19:48N 18°28' W 066°06'0 0.0
2017-Apr-16 19:09N 18°28' W 066°06'0 0.0
2017-Apr-16 19:00N 18°28' W 066°06'0 0.0
2017-Apr-16 18:27N 18°28' W 066°06'0 0.0
2017-Apr-16 18:00N 18°28' W 066°06'0 0.0
2017-Apr-16 17:27N 18°28' W 066°06'0 0.0
2017-Apr-16 17:00N 18°28' W 066°06'0 0.0
2017-Apr-16 16:09N 18°28' W 066°06'0 0.0
2017-Apr-16 15:52N 18°28' W 066°06'0 0.0
2017-Apr-16 15:30N 18°28' W 066°06'0 0.0
2017-Apr-16 14:57N 18°28' W 066°06'0 0.0
2017-Apr-16 14:27N 18°28' W 066°06'0 0.0
2017-Apr-16 12:45N 18°28' W 066°06'0 0.0
2017-Apr-16 12:21N 18°28' W 066°06'0 0.0
2017-Apr-16 11:54N 18°28' W 066°06'0 0.0
2017-Apr-16 11:27N 18°28' W 066°06'0 0.0
2017-Apr-16 11:00N 18°28' W 066°06'1 0.4
2017-Apr-16 09:20N 18°27' W 066°07'4 6.9
2017-Apr-16 08:48N 18°31' W 066°07'412.5
2017-Apr-16 08:30N 18°32' W 066°03'713.7
2017-Apr-16 08:00N 18°32' W 065°56'4214.1
2017-Apr-16 05:00N 18°24' W 065°12'2413.9 040 / 91013.027.0 26.0 27.0
2017-Apr-16 03:14N 18°09' W 064°52'314.5
2017-Apr-16 03:01N 18°07' W 064°49'178.6
2017-Apr-16 03:00N 18°06' W 064°48'14614.1 050 / 151014.0 27.0 27.0
2017-Apr-15 16:39N 16°23' W 063°01'1414.4
2017-Apr-15 15:39N 16°12' W 062°51'214.5
2017-Apr-15 15:30N 16°10' W 062°49'2514.1
2017-Apr-15 13:46N 15°52' W 062°32'12113.8
2017-Apr-15 05:00N 14°24' W 061°06'73 3.0 090 / 131011.027.0 28.0 27.0
2017-Apr-14 05:00N 13°24' W 060°24'   130 / 191009.027.0 27.0 27.0

Dump ship's entire track history